Accueil
METAR-TAF:

METAR-TAF

Aéroports :

Strother Field

Winfield / Arkansas City, Kansas, États-Unis

latitude: 37-10-05N, longitude: 097-02-13W, altitude: 353 m

Observation

Le bulletin a été fait il y a 43 minutes, à 01:54 UTC
Vent 4 kt de est
Température 24°C
Humidité 69%
Pression 1018 hPa
Visibilité: 16.1 km
Ciel clair

METAR: KWLD 220154Z AUTO 09004KT 10SM CLR 24/18 A3007 RMK AO2 SLP172 T02440183

Heure: 21:37 (02:37 UTC)


TAF: absent

Observations et prévisions météorologiques de plus de 4000 aéroports (messages METAR et TAF).

Les stations disponibles sont représentées par des disques jaunes et rouges sur la carte.

Passer la souris dessus pour voir le nom de la station.

Cliquer dessus pour voir les observations et prévisions météorologiques.

Pour changer de carte: cliquez sur les boutons verts avec une croix noire pour zoomer, sur le bouton vert avec un tiret pour effectuer un zoom arrière, ou sur les flèches vertes pour les cartes adjacentes.


METAR-TAF: